Time;durP1;ratioP1;P1;durP2;ratioP2;P2;SDS_P1;SDS_P2;PMS_P1;PMS_P2;Temp;Humidity;BMP_temperature;BMP_pressure;BME280_temperature;BME280_humidity;BME280_pressure;Samples;Min_cycle;Max_cycle;Signal;HPM_P1;HPM_P2
2023/08/02 00:00:30;;;;;;;8.90;3.10;;;;;;;;;;5027525;28;20449;-59
2023/08/02 00:02:57;;;;;;;11.60;3.33;;;;;;;;;;5024523;28;20788;-60
2023/08/02 00:05:24;;;;;;;8.10;3.58;;;;;;;;;;5028803;28;20422;-60
2023/08/02 00:07:52;;;;;;;8.05;3.17;;;;;;;;;;5028758;28;20436;-60
2023/08/02 00:10:20;;;;;;;7.15;3.30;;;;;;;;;;5031241;28;20477;-60
2023/08/02 00:12:47;;;;;;;8.25;3.03;;;;;;;;;;5022878;28;20424;-60
2023/08/02 00:15:14;;;;;;;7.57;3.50;;;;;;;;;;5027741;28;20468;-60
2023/08/02 00:17:41;;;;;;;7.65;3.38;;;;;;;;;;5024758;28;20775;-58
2023/08/02 00:20:09;;;;;;;7.60;3.40;;;;;;;;;;5027854;28;20441;-59
2023/08/02 00:22:36;;;;;;;8.07;3.07;;;;;;;;;;5023744;28;20415;-58
2023/08/02 00:25:03;;;;;;;8.13;3.40;;;;;;;;;;5024194;28;21038;-58
2023/08/02 00:27:31;;;;;;;7.30;2.83;;;;;;;;;;5024204;28;20431;-58
2023/08/02 00:29:58;;;;;;;6.32;2.90;;;;;;;;;;5028089;28;20477;-59
2023/08/02 00:32:25;;;;;;;6.68;3.20;;;;;;;;;;5025271;28;20904;-58
2023/08/02 00:34:54;;;;;;;9.23;3.10;;;;;;;;;;5025166;28;20423;-59
2023/08/02 00:37:22;;;;;;;5.00;2.80;;;;;;;;;;5029892;28;20904;-58
2023/08/02 00:39:51;;;;;;;11.80;3.00;;;;;;;;;;5031679;28;20769;-59
2023/08/02 00:42:18;;;;;;;7.82;2.90;;;;;;;;;;5024254;28;20893;-59
2023/08/02 00:44:46;;;;;;;8.15;2.90;;;;;;;;;;5026078;28;20420;-59
2023/08/02 00:47:13;;;;;;;5.82;2.70;;;;;;;;;;5026770;28;20592;-59
2023/08/02 00:49:40;;;;;;;6.60;2.90;;;;;;;;;;5023608;28;20420;-60
2023/08/02 00:52:07;;;;;;;10.90;2.90;;;;;;;;;;5029444;28;20890;-59
2023/08/02 00:54:34;;;;;;;9.93;3.10;;;;;;;;;;5024671;28;20520;-58
2023/08/02 00:57:01;;;;;;;5.22;2.63;;;;;;;;;;5025675;28;20599;-59
2023/08/02 00:59:29;;;;;;;6.00;2.67;;;;;;;;;;5023441;28;20426;-60
2023/08/02 01:01:57;;;;;;;7.97;3.10;;;;;;;;;;5024488;28;20420;-57
2023/08/02 01:04:24;;;;;;;7.88;2.83;;;;;;;;;;5025136;28;20482;-59
2023/08/02 01:06:55;;;;;;;8.38;2.97;;;;;;;;;;5028278;28;20435;-60
2023/08/02 01:09:29;;;;;;;6.55;3.08;;;;;;;;;;5024822;28;20451;-59
2023/08/02 01:11:59;;;;;;;8.68;2.72;;;;;;;;;;5024305;28;20478;-59
2023/08/02 01:14:27;;;;;;;8.32;2.75;;;;;;;;;;5022786;28;20455;-59
2023/08/02 01:16:55;;;;;;;8.50;2.97;;;;;;;;;;5027474;28;20460;-59
2023/08/02 01:19:23;;;;;;;7.77;3.10;;;;;;;;;;5023199;28;20488;-60
2023/08/02 01:21:52;;;;;;;11.55;3.38;;;;;;;;;;5025747;28;20932;-60
2023/08/02 01:24:19;;;;;;;8.80;3.20;;;;;;;;;;5021842;28;20460;-60
2023/08/02 01:26:48;;;;;;;5.87;2.57;;;;;;;;;;5026853;28;20443;-57
2023/08/02 01:29:17;;;;;;;5.10;2.80;;;;;;;;;;5025940;28;21035;-59
2023/08/02 01:31:44;;;;;;;8.05;2.85;;;;;;;;;;5024479;28;20466;-58
2023/08/02 01:34:12;;;;;;;7.05;2.60;;;;;;;;;;5022735;28;20460;-58
2023/08/02 01:36:39;;;;;;;10.60;3.10;;;;;;;;;;5025685;28;20419;-58
2023/08/02 01:39:09;;;;;;;7.57;3.10;;;;;;;;;;5028649;28;20462;-59
2023/08/02 01:41:35;;;;;;;10.15;3.20;;;;;;;;;;5026883;28;20471;-59
2023/08/02 01:44:02;;;;;;;7.90;3.08;;;;;;;;;;5016765;28;20910;-58
2023/08/02 01:46:29;;;;;;;7.03;3.22;;;;;;;;;;5016854;28;20424;-59
2023/08/02 01:48:56;;;;;;;7.85;2.95;;;;;;;;;;5022119;28;20432;-59
2023/08/02 01:51:23;;;;;;;8.87;3.03;;;;;;;;;;5021253;28;20832;-60
2023/08/02 01:53:50;;;;;;;9.77;2.72;;;;;;;;;;5020977;28;20443;-58
2023/08/02 01:56:19;;;;;;;7.53;2.93;;;;;;;;;;5018369;28;20414;-60
2023/08/02 01:58:46;;;;;;;8.27;2.80;;;;;;;;;;5019107;28;20487;-59
2023/08/02 02:01:13;;;;;;;7.20;2.90;;;;;;;;;;5026353;28;20414;-59
2023/08/02 02:03:40;;;;;;;7.10;2.85;;;;;;;;;;5022554;28;20422;-59
2023/08/02 02:06:07;;;;;;;6.07;3.22;;;;;;;;;;5027530;28;20449;-59
2023/08/02 02:08:35;;;;;;;5.90;3.15;;;;;;;;;;5034587;28;20429;-59
2023/08/02 02:11:03;;;;;;;8.85;3.17;;;;;;;;;;5029678;28;20439;-60
2023/08/02 02:13:32;;;;;;;9.07;3.17;;;;;;;;;;5030992;28;20927;-60
2023/08/02 02:15:59;;;;;;;10.75;3.08;;;;;;;;;;5029556;28;20504;-61
2023/08/02 02:18:26;;;;;;;9.90;3.40;;;;;;;;;;5026147;28;20415;-60
2023/08/02 02:20:53;;;;;;;9.68;3.25;;;;;;;;;;5027761;28;20416;-60
2023/08/02 02:23:20;;;;;;;7.07;3.03;;;;;;;;;;5029427;28;20472;-60
2023/08/02 02:25:47;;;;;;;8.82;3.13;;;;;;;;;;5026750;28;20416;-60
2023/08/02 02:28:14;;;;;;;9.53;3.23;;;;;;;;;;5025667;28;20444;-60
2023/08/02 02:30:44;;;;;;;9.43;3.20;;;;;;;;;;5028729;28;20937;-60
2023/08/02 02:33:11;;;;;;;9.50;3.42;;;;;;;;;;5032595;28;20410;-58
2023/08/02 02:35:38;;;;;;;7.07;3.35;;;;;;;;;;5029759;28;20424;-62
2023/08/02 02:38:05;;;;;;;7.40;2.93;;;;;;;;;;5037701;28;20941;-59
2023/08/02 02:40:32;;;;;;;7.28;3.03;;;;;;;;;;5028594;28;20414;-60
2023/08/02 02:42:59;;;;;;;8.77;3.25;;;;;;;;;;5027448;28;20499;-60
2023/08/02 02:45:26;;;;;;;7.88;3.33;;;;;;;;;;5023031;28;20896;-59
2023/08/02 02:47:54;;;;;;;5.68;3.03;;;;;;;;;;5026465;28;20432;-58
2023/08/02 02:50:21;;;;;;;9.25;3.13;;;;;;;;;;5026971;28;20502;-59
2023/08/02 02:52:48;;;;;;;8.10;3.30;;;;;;;;;;5025158;28;20418;-60
2023/08/02 02:55:15;;;;;;;9.50;3.50;;;;;;;;;;5028916;28;20972;-60
2023/08/02 02:57:42;;;;;;;9.65;3.00;;;;;;;;;;5028828;28;20423;-59
2023/08/02 03:00:10;;;;;;;7.53;2.88;;;;;;;;;;5027288;28;20456;-60
2023/08/02 03:02:37;;;;;;;6.60;3.03;;;;;;;;;;5026559;28;20453;-58
2023/08/02 03:05:06;;;;;;;6.97;3.10;;;;;;;;;;5026229;28;20735;-60
2023/08/02 03:07:33;;;;;;;6.60;2.92;;;;;;;;;;5029455;28;21208;-59
2023/08/02 03:10:00;;;;;;;10.57;2.80;;;;;;;;;;5029114;28;20425;-59
2023/08/02 03:12:27;;;;;;;7.63;3.05;;;;;;;;;;5031824;28;20431;-59
2023/08/02 03:14:54;;;;;;;5.57;2.90;;;;;;;;;;5024033;28;20416;-59
2023/08/02 03:17:21;;;;;;;8.00;2.95;;;;;;;;;;5027224;28;20411;-59
2023/08/02 03:19:48;;;;;;;7.90;2.80;;;;;;;;;;5025048;28;20935;-59
2023/08/02 03:22:17;;;;;;;6.18;2.90;;;;;;;;;;5030168;28;20518;-60
2023/08/02 03:24:44;;;;;;;10.25;3.20;;;;;;;;;;5022721;28;20435;-60
2023/08/02 03:27:11;;;;;;;6.95;3.08;;;;;;;;;;5029389;28;20431;-60
2023/08/02 03:29:38;;;;;;;7.13;3.13;;;;;;;;;;5022686;28;20478;-60
2023/08/02 03:32:05;;;;;;;7.20;3.03;;;;;;;;;;5028677;28;20415;-61
2023/08/02 03:34:32;;;;;;;9.57;3.28;;;;;;;;;;5022941;28;20421;-60
2023/08/02 03:36:59;;;;;;;9.00;3.13;;;;;;;;;;5031778;28;20473;-59
2023/08/02 03:39:27;;;;;;;8.83;2.90;;;;;;;;;;5027832;28;20497;-59
2023/08/02 03:41:55;;;;;;;6.80;2.92;;;;;;;;;;5027345;28;20452;-58
2023/08/02 03:44:22;;;;;;;7.83;2.80;;;;;;;;;;5024798;28;20446;-60
2023/08/02 03:46:49;;;;;;;7.10;3.05;;;;;;;;;;5026879;28;20900;-60
2023/08/02 03:49:15;;;;;;;6.40;2.80;;;;;;;;;;5025045;28;21235;-58
2023/08/02 03:51:42;;;;;;;9.07;3.05;;;;;;;;;;5029425;28;20454;-59
2023/08/02 03:54:10;;;;;;;6.38;2.72;;;;;;;;;;5024678;28;20407;-60
2023/08/02 03:56:38;;;;;;;6.80;2.63;;;;;;;;;;5026819;28;20413;-59
2023/08/02 03:59:05;;;;;;;5.80;2.50;;;;;;;;;;5024283;28;20498;-60
2023/08/02 04:01:32;;;;;;;7.60;2.40;;;;;;;;;;5024750;28;20901;-60
2023/08/02 04:03:59;;;;;;;8.30;2.63;;;;;;;;;;5024578;28;20437;-60
2023/08/02 04:06:26;;;;;;;5.27;2.50;;;;;;;;;;5027681;28;20419;-61
2023/08/02 04:08:53;;;;;;;8.10;2.60;;;;;;;;;;5026260;28;20429;-59
2023/08/02 04:11:20;;;;;;;7.32;2.60;;;;;;;;;;5029099;28;20469;-60
2023/08/02 04:13:51;;;;;;;8.38;4.25;;;;;;;;;;5024518;28;20442;-58
2023/08/02 04:16:18;;;;;;;6.88;2.88;;;;;;;;;;5027802;28;20920;-59
2023/08/02 04:18:45;;;;;;;6.85;2.58;;;;;;;;;;5023530;28;20457;-60
2023/08/02 04:21:17;;;;;;;7.07;2.83;;;;;;;;;;5026865;28;20966;-59
2023/08/02 04:23:44;;;;;;;6.95;2.55;;;;;;;;;;5022951;28;20407;-58
2023/08/02 04:26:11;;;;;;;5.00;2.75;;;;;;;;;;5025925;28;20415;-60
2023/08/02 04:28:38;;;;;;;5.68;2.60;;;;;;;;;;5026478;28;20500;-59
2023/08/02 04:31:06;;;;;;;7.15;2.70;;;;;;;;;;5025685;28;20411;-60
2023/08/02 04:33:33;;;;;;;7.00;2.45;;;;;;;;;;5023250;28;20425;-59
2023/08/02 04:36:00;;;;;;;7.88;2.40;;;;;;;;;;5026472;28;20444;-61
2023/08/02 04:38:27;;;;;;;6.87;2.57;;;;;;;;;;5034596;28;20500;-60
2023/08/02 04:40:54;;;;;;;5.53;2.63;;;;;;;;;;5025956;28;20955;-61
2023/08/02 04:43:21;;;;;;;5.75;2.40;;;;;;;;;;5026057;28;20419;-61
2023/08/02 04:45:48;;;;;;;7.45;2.45;;;;;;;;;;5023058;28;20421;-61
2023/08/02 04:48:17;;;;;;;5.85;2.33;;;;;;;;;;5026701;28;20463;-61
2023/08/02 04:50:44;;;;;;;4.40;2.40;;;;;;;;;;5020270;28;20426;-61
2023/08/02 04:53:11;;;;;;;4.13;2.22;;;;;;;;;;5021044;28;20423;-60
2023/08/02 04:55:42;;;;;;;9.65;2.70;;;;;;;;;;5022978;28;20432;-60
2023/08/02 04:58:09;;;;;;;3.80;2.35;;;;;;;;;;5025207;28;20817;-60
2023/08/02 05:00:36;;;;;;;5.20;2.33;;;;;;;;;;5024188;28;20481;-61
2023/08/02 05:03:03;;;;;;;9.00;2.60;;;;;;;;;;5026482;28;20412;-60
2023/08/02 05:05:31;;;;;;;6.05;2.20;;;;;;;;;;5022413;28;20415;-61
2023/08/02 05:07:58;;;;;;;6.03;2.65;;;;;;;;;;5030717;28;20440;-60
2023/08/02 05:10:25;;;;;;;4.32;2.33;;;;;;;;;;5022682;28;20449;-62
2023/08/02 05:12:52;;;;;;;4.05;2.33;;;;;;;;;;5027536;28;20420;-61
2023/08/02 05:15:19;;;;;;;5.82;2.42;;;;;;;;;;5027699;28;20417;-62
2023/08/02 05:17:46;;;;;;;4.77;2.37;;;;;;;;;;5016939;28;20415;-61
2023/08/02 05:20:13;;;;;;;7.50;2.53;;;;;;;;;;5023470;28;20858;-61
2023/08/02 05:22:41;;;;;;;6.35;2.75;;;;;;;;;;5024920;28;20427;-61
2023/08/02 05:25:09;;;;;;;4.28;2.30;;;;;;;;;;5026403;28;20492;-62
2023/08/02 05:27:36;;;;;;;6.53;2.55;;;;;;;;;;5026544;28;20423;-61
2023/08/02 05:30:03;;;;;;;5.95;2.90;;;;;;;;;;5023006;28;20425;-61
2023/08/02 05:32:30;;;;;;;5.20;2.67;;;;;;;;;;5026964;28;20415;-61
2023/08/02 05:34:57;;;;;;;4.95;2.72;;;;;;;;;;5019607;28;20478;-61
2023/08/02 05:37:24;;;;;;;4.63;2.72;;;;;;;;;;5028201;28;20550;-56
2023/08/02 05:39:52;;;;;;;4.18;2.80;;;;;;;;;;5027546;28;20429;-59
2023/08/02 05:42:19;;;;;;;6.45;3.17;;;;;;;;;;5024504;28;20426;-60
2023/08/02 05:44:46;;;;;;;4.53;2.72;;;;;;;;;;5022897;28;20421;-60
2023/08/02 05:47:13;;;;;;;7.63;2.90;;;;;;;;;;5028015;28;20505;-58
2023/08/02 05:49:40;;;;;;;4.95;2.72;;;;;;;;;;5020706;28;20433;-60
2023/08/02 05:52:08;;;;;;;4.03;2.50;;;;;;;;;;5025231;28;20726;-60
2023/08/02 05:54:35;;;;;;;5.53;2.70;;;;;;;;;;5018633;28;20475;-61
2023/08/02 05:57:03;;;;;;;5.90;2.80;;;;;;;;;;5019364;28;20573;-59
2023/08/02 05:59:30;;;;;;;5.80;2.92;;;;;;;;;;5020864;28;20423;-58
2023/08/02 06:01:57;;;;;;;5.80;2.97;;;;;;;;;;5017947;28;20463;-60
2023/08/02 06:04:24;;;;;;;7.40;2.90;;;;;;;;;;5022400;28;20423;-59
2023/08/02 06:06:51;;;;;;;6.43;3.33;;;;;;;;;;5019025;28;20429;-60
2023/08/02 06:09:19;;;;;;;6.13;3.10;;;;;;;;;;5019957;28;20861;-62
2023/08/02 06:11:46;;;;;;;6.88;2.92;;;;;;;;;;5024264;28;20420;-62
2023/08/02 06:14:15;;;;;;;5.63;2.90;;;;;;;;;;5020673;28;20441;-62
2023/08/02 06:16:42;;;;;;;5.50;3.13;;;;;;;;;;5027148;28;20423;-62
2023/08/02 06:19:09;;;;;;;6.32;2.72;;;;;;;;;;5035222;28;20420;-62
2023/08/02 06:21:36;;;;;;;4.77;3.00;;;;;;;;;;5026982;28;20419;-62
2023/08/02 06:24:03;;;;;;;4.93;3.10;;;;;;;;;;5020217;28;20468;-61
2023/08/02 06:26:30;;;;;;;6.05;3.25;;;;;;;;;;5020538;28;20502;-62
2023/08/02 06:28:57;;;;;;;6.00;3.22;;;;;;;;;;5025548;28;20921;-63
2023/08/02 06:31:25;;;;;;;6.53;3.57;;;;;;;;;;5026670;28;20423;-61
2023/08/02 06:33:52;;;;;;;5.45;3.13;;;;;;;;;;5018182;28;20476;-61
2023/08/02 06:36:20;;;;;;;5.05;3.50;;;;;;;;;;5021111;28;20414;-61
2023/08/02 06:38:47;;;;;;;5.43;3.70;;;;;;;;;;5023514;28;20901;-62
2023/08/02 06:41:14;;;;;;;5.65;3.78;;;;;;;;;;5021722;28;20415;-61
2023/08/02 06:43:41;;;;;;;8.02;4.22;;;;;;;;;;5022033;28;20415;-60
2023/08/02 06:46:08;;;;;;;5.07;3.80;;;;;;;;;;5023292;28;20894;-61
2023/08/02 06:48:37;;;;;;;5.60;4.00;;;;;;;;;;5020174;28;20521;-61
2023/08/02 06:51:04;;;;;;;9.55;4.20;;;;;;;;;;5020298;28;20413;-61
2023/08/02 06:53:31;;;;;;;7.85;4.10;;;;;;;;;;5025455;28;20476;-61
2023/08/02 06:55:58;;;;;;;8.68;3.83;;;;;;;;;;5024272;28;20587;-59
2023/08/02 06:58:25;;;;;;;5.60;4.03;;;;;;;;;;5036092;28;20463;-59
2023/08/02 07:00:52;;;;;;;6.63;4.00;;;;;;;;;;5028100;28;20427;-59
2023/08/02 07:03:21;;;;;;;8.98;4.10;;;;;;;;;;5027721;28;20411;-59
2023/08/02 07:05:50;;;;;;;9.02;4.07;;;;;;;;;;5023359;28;20839;-56
2023/08/02 07:08:16;;;;;;;6.93;4.10;;;;;;;;;;5034879;28;20482;-58
2023/08/02 07:10:43;;;;;;;7.80;4.27;;;;;;;;;;5022116;28;20511;-60
2023/08/02 07:13:10;;;;;;;6.43;4.40;;;;;;;;;;5018295;28;20822;-57
2023/08/02 07:15:37;;;;;;;6.78;4.00;;;;;;;;;;5022491;28;20418;-59
2023/08/02 07:18:04;;;;;;;7.55;3.85;;;;;;;;;;5033760;28;20494;-60
2023/08/02 07:20:31;;;;;;;5.72;4.00;;;;;;;;;;5025796;28;20411;-58
2023/08/02 07:22:59;;;;;;;7.90;4.00;;;;;;;;;;5019626;28;20416;-60
2023/08/02 07:25:27;;;;;;;6.25;3.78;;;;;;;;;;5024448;28;20427;-59
2023/08/02 07:27:54;;;;;;;7.85;3.70;;;;;;;;;;5027834;28;20431;-59
2023/08/02 07:30:21;;;;;;;6.70;3.80;;;;;;;;;;5025122;28;20435;-59
2023/08/02 07:32:48;;;;;;;6.15;3.60;;;;;;;;;;5025217;28;20427;-61
2023/08/02 07:35:15;;;;;;;5.93;3.00;;;;;;;;;;5020111;28;20420;-60
2023/08/02 07:37:42;;;;;;;4.53;3.15;;;;;;;;;;5024439;28;20975;-60
2023/08/02 07:40:13;;;;;;;4.88;2.95;;;;;;;;;;5025921;28;20480;-58
2023/08/02 07:42:40;;;;;;;3.33;2.33;;;;;;;;;;5025905;28;20458;-59
2023/08/02 07:45:08;;;;;;;4.28;2.60;;;;;;;;;;5026145;28;20789;-60
2023/08/02 07:47:35;;;;;;;3.63;2.37;;;;;;;;;;5027881;28;20916;-60
2023/08/02 07:50:02;;;;;;;2.67;2.20;;;;;;;;;;5025866;28;20928;-60
2023/08/02 07:52:29;;;;;;;2.83;1.92;;;;;;;;;;5028238;28;20428;-59
2023/08/02 07:54:56;;;;;;;2.67;1.90;;;;;;;;;;5025032;28;20430;-60
2023/08/02 07:57:26;;;;;;;3.80;1.80;;;;;;;;;;5028891;28;20457;-60
2023/08/02 07:59:53;;;;;;;3.78;1.67;;;;;;;;;;5023132;28;20414;-58
2023/08/02 08:02:20;;;;;;;1.60;1.50;;;;;;;;;;5024217;28;20439;-60
2023/08/02 08:04:47;;;;;;;2.65;1.70;;;;;;;;;;5023254;28;20465;-60
2023/08/02 08:07:14;;;;;;;2.00;1.50;;;;;;;;;;5028117;28;20486;-60
2023/08/02 08:09:41;;;;;;;2.63;1.60;;;;;;;;;;5031055;28;20488;-60
2023/08/02 08:12:09;;;;;;;3.60;1.80;;;;;;;;;;5028183;28;20415;-60
2023/08/02 08:14:37;;;;;;;2.60;1.48;;;;;;;;;;5024298;28;20430;-58
2023/08/02 08:17:05;;;;;;;2.20;1.50;;;;;;;;;;5028637;28;20408;-56
2023/08/02 08:19:33;;;;;;;2.47;1.50;;;;;;;;;;5027026;28;20417;-60
2023/08/02 08:22:00;;;;;;;2.92;1.60;;;;;;;;;;5024812;28;20879;-59
2023/08/02 08:24:27;;;;;;;2.08;1.50;;;;;;;;;;5019765;28;20428;-58
2023/08/02 08:26:55;;;;;;;2.50;1.77;;;;;;;;;;5021919;28;20775;-59
2023/08/02 08:29:22;;;;;;;2.35;1.55;;;;;;;;;;5019730;28;20502;-59
2023/08/02 08:31:50;;;;;;;2.85;1.98;;;;;;;;;;5026576;28;20498;-58
2023/08/02 08:34:17;;;;;;;2.72;1.90;;;;;;;;;;5024410;28;20424;-56
2023/08/02 08:36:44;;;;;;;2.15;1.85;;;;;;;;;;5025940;28;20419;-57
2023/08/02 08:39:11;;;;;;;2.30;2.00;;;;;;;;;;5028139;28;20413;-57
2023/08/02 08:41:38;;;;;;;2.47;1.90;;;;;;;;;;5026046;28;20476;-57
2023/08/02 08:44:06;;;;;;;2.40;2.15;;;;;;;;;;5028436;28;20428;-59
2023/08/02 08:46:33;;;;;;;3.08;2.03;;;;;;;;;;5026049;28;20909;-57
2023/08/02 08:49:02;;;;;;;2.30;1.90;;;;;;;;;;5023737;28;20435;-59
2023/08/02 08:51:31;;;;;;;2.42;1.80;;;;;;;;;;5028899;28;20479;-57
2023/08/02 08:53:59;;;;;;;2.47;1.90;;;;;;;;;;5035331;28;20522;-57
2023/08/02 08:56:27;;;;;;;3.07;2.03;;;;;;;;;;5026717;28;21008;-59
2023/08/02 08:58:55;;;;;;;2.90;1.70;;;;;;;;;;5029475;28;20427;-57
2023/08/02 09:01:22;;;;;;;2.33;2.07;;;;;;;;;;5025703;28;20415;-59
2023/08/02 09:03:49;;;;;;;1.50;1.40;;;;;;;;;;5024153;28;20472;-59
2023/08/02 09:06:17;;;;;;;4.20;1.50;;;;;;;;;;5023511;28;20411;-58
2023/08/02 09:08:45;;;;;;;2.40;1.70;;;;;;;;;;5025906;28;20894;-58
2023/08/02 09:11:12;;;;;;;2.70;1.60;;;;;;;;;;5018496;28;20854;-57
2023/08/02 09:13:39;;;;;;;2.67;1.80;;;;;;;;;;5019851;28;20423;-58
2023/08/02 09:16:07;;;;;;;2.20;1.73;;;;;;;;;;5019118;28;20420;-58
2023/08/02 09:18:38;;;;;;;3.70;1.55;;;;;;;;;;5032812;28;20786;-59
2023/08/02 09:21:05;;;;;;;1.65;1.55;;;;;;;;;;5041088;28;20411;-58
2023/08/02 09:23:33;;;;;;;2.03;1.33;;;;;;;;;;5045860;28;20427;-60
2023/08/02 09:26:14;;;;;;;1.60;1.23;;;;;;;;;;5020930;28;20907;-62
2023/08/02 09:28:41;;;;;;;3.47;1.10;;;;;;;;;;5025372;28;20453;-60
2023/08/02 09:31:14;;;;;;;1.38;1.10;;;;;;;;;;5021753;28;20471;-58
2023/08/02 09:33:49;;;;;;;1.45;1.10;;;;;;;;;;5025280;28;20411;-60
2023/08/02 09:36:22;;;;;;;2.33;1.40;;;;;;;;;;5025756;28;20517;-61
2023/08/02 09:38:56;;;;;;;1.55;1.30;;;;;;;;;;5027354;28;20438;-61
2023/08/02 09:41:23;;;;;;;1.35;1.10;;;;;;;;;;5022678;28;20805;-62
2023/08/02 09:43:51;;;;;;;1.52;1.20;;;;;;;;;;5023411;28;20417;-62
2023/08/02 09:46:25;;;;;;;1.58;1.00;;;;;;;;;;5024078;28;20426;-60
2023/08/02 09:48:52;;;;;;;1.70;0.90;;;;;;;;;;5022199;28;20498;-59
2023/08/02 09:51:19;;;;;;;2.17;0.90;;;;;;;;;;5025024;28;20411;-57
2023/08/02 09:53:57;;;;;;;1.20;0.90;;;;;;;;;;5027673;28;20419;-57
2023/08/02 09:56:25;;;;;;;1.33;0.90;;;;;;;;;;5018784;28;20421;-59
2023/08/02 09:58:55;;;;;;;1.38;0.80;;;;;;;;;;5026657;28;20505;-62
2023/08/02 10:01:23;;;;;;;2.65;1.00;;;;;;;;;;5021502;28;20967;-60
2023/08/02 10:03:55;;;;;;;1.30;0.70;;;;;;;;;;5024583;28;20496;-62
2023/08/02 10:06:22;;;;;;;1.02;0.75;;;;;;;;;;5020055;28;20418;-61
2023/08/02 10:08:50;;;;;;;0.95;0.65;;;;;;;;;;5022807;28;20915;-61
2023/08/02 10:11:18;;;;;;;0.90;0.43;;;;;;;;;;5020498;28;21145;-60
2023/08/02 10:13:46;;;;;;;1.05;0.50;;;;;;;;;;5021195;28;20421;-61
2023/08/02 10:16:16;;;;;;;0.60;0.57;;;;;;;;;;5017804;28;21938;-60
2023/08/02 10:18:43;;;;;;;2.40;0.40;;;;;;;;;;5019811;28;20455;-61
2023/08/02 10:21:10;;;;;;;0.80;0.52;;;;;;;;;;5026748;28;20426;-57
2023/08/02 10:23:38;;;;;;;1.08;0.52;;;;;;;;;;5021254;28;20422;-59
2023/08/02 10:26:06;;;;;;;1.00;0.50;;;;;;;;;;5024742;28;20475;-58
2023/08/02 10:28:35;;;;;;;0.50;0.50;;;;;;;;;;5021788;28;20906;-58
2023/08/02 10:31:07;;;;;;;2.67;0.60;;;;;;;;;;5024541;28;20436;-59
2023/08/02 10:33:34;;;;;;;1.25;0.40;;;;;;;;;;5026304;28;20821;-63
2023/08/02 10:36:02;;;;;;;0.70;0.50;;;;;;;;;;5028244;28;20467;-63
2023/08/02 10:38:29;;;;;;;0.65;0.50;;;;;;;;;;5032791;28;20470;-63
2023/08/02 10:41:03;;;;;;;1.00;0.50;;;;;;;;;;5030789;28;20417;-62
2023/08/02 10:43:30;;;;;;;2.10;0.70;;;;;;;;;;5028549;28;20531;-62
2023/08/02 10:46:17;;;;;;;1.30;0.50;;;;;;;;;;5034190;28;20447;-64
2023/08/02 10:48:44;;;;;;;2.72;0.57;;;;;;;;;;5027821;28;20798;-62
2023/08/02 10:51:26;;;;;;;0.88;0.50;;;;;;;;;;5026796;28;20429;-62
2023/08/02 10:54:08;;;;;;;1.30;0.50;;;;;;;;;;5021335;28;20421;-63
2023/08/02 10:56:35;;;;;;;0.70;0.50;;;;;;;;;;5026858;28;20432;-61
2023/08/02 10:59:02;;;;;;;0.60;0.40;;;;;;;;;;5037533;28;20415;-62
2023/08/02 11:01:30;;;;;;;1.27;0.40;;;;;;;;;;5028040;28;20418;-63
2023/08/02 11:03:58;;;;;;;2.05;0.45;;;;;;;;;;5026090;28;20418;-62
2023/08/02 11:06:29;;;;;;;0.90;0.32;;;;;;;;;;5027613;28;20425;-62
2023/08/02 11:08:56;;;;;;;1.13;0.35;;;;;;;;;;5024328;28;20422;-62
2023/08/02 11:11:30;;;;;;;0.40;0.30;;;;;;;;;;5026725;28;20488;-62
2023/08/02 11:13:57;;;;;;;0.80;0.30;;;;;;;;;;5030116;28;20785;-62
2023/08/02 11:16:24;;;;;;;3.05;0.50;;;;;;;;;;5025549;28;20419;-63
2023/08/02 11:18:54;;;;;;;1.20;0.40;;;;;;;;;;5033636;28;20848;-62
2023/08/02 11:21:21;;;;;;;0.40;0.20;;;;;;;;;;5024063;28;20465;-62
2023/08/02 11:23:49;;;;;;;1.10;0.30;;;;;;;;;;5025791;28;20465;-61
2023/08/02 11:26:17;;;;;;;0.63;0.30;;;;;;;;;;5027370;28;20434;-61
2023/08/02 11:28:45;;;;;;;1.00;0.30;;;;;;;;;;5028568;28;20504;-62
2023/08/02 11:31:12;;;;;;;1.65;0.35;;;;;;;;;;5024305;28;20838;-62
2023/08/02 11:33:40;;;;;;;0.70;0.30;;;;;;;;;;5028757;28;20411;-62
2023/08/02 11:36:08;;;;;;;2.10;0.70;;;;;;;;;;5022856;28;20448;-61
2023/08/02 11:38:37;;;;;;;1.40;0.30;;;;;;;;;;5035460;28;20909;-61
2023/08/02 11:41:04;;;;;;;3.38;0.30;;;;;;;;;;5026675;28;20526;-62
2023/08/02 11:43:35;;;;;;;1.10;0.30;;;;;;;;;;5027381;28;20423;-61
2023/08/02 11:46:12;;;;;;;1.05;0.22;;;;;;;;;;5021817;28;20444;-63
2023/08/02 11:48:40;;;;;;;1.95;0.30;;;;;;;;;;5029265;28;20434;-62
2023/08/02 11:51:09;;;;;;;0.57;0.30;;;;;;;;;;5036225;28;20494;-64
2023/08/02 11:53:36;;;;;;;0.20;0.20;;;;;;;;;;5037525;28;20411;-62
2023/08/02 11:56:03;;;;;;;0.30;0.30;;;;;;;;;;5031722;28;20415;-61
2023/08/02 11:58:30;;;;;;;0.38;0.30;;;;;;;;;;5028978;28;20415;-62
2023/08/02 12:00:57;;;;;;;0.70;0.30;;;;;;;;;;5019997;28;20484;-61
2023/08/02 12:03:24;;;;;;;1.30;0.30;;;;;;;;;;5018446;28;20418;-61
2023/08/02 12:05:59;;;;;;;0.95;0.20;;;;;;;;;;5023765;28;20893;-61
2023/08/02 12:08:28;;;;;;;0.30;0.30;;;;;;;;;;5027878;28;20423;-62
2023/08/02 12:10:55;;;;;;;1.10;0.20;;;;;;;;;;5023035;28;20430;-64
2023/08/02 12:13:22;;;;;;;0.90;0.40;;;;;;;;;;5029037;28;20469;-63
2023/08/02 12:16:02;;;;;;;0.50;0.40;;;;;;;;;;5026366;28;20477;-59
2023/08/02 12:18:29;;;;;;;1.10;0.30;;;;;;;;;;5025924;28;20415;-59
2023/08/02 12:20:56;;;;;;;0.35;0.25;;;;;;;;;;5026137;28;20473;-59
2023/08/02 12:23:34;;;;;;;0.25;0.25;;;;;;;;;;5020032;28;20407;-59
2023/08/02 12:26:01;;;;;;;0.50;0.30;;;;;;;;;;5025732;28;20422;-60
2023/08/02 12:28:42;;;;;;;0.40;0.20;;;;;;;;;;5024561;28;20441;-60
2023/08/02 12:31:09;;;;;;;0.30;0.20;;;;;;;;;;5026608;28;20460;-59
2023/08/02 12:33:37;;;;;;;0.20;0.20;;;;;;;;;;5022612;28;20423;-59
2023/08/02 12:36:04;;;;;;;0.40;0.20;;;;;;;;;;5025197;28;20439;-58
2023/08/02 12:38:31;;;;;;;0.70;0.28;;;;;;;;;;5028272;28;20452;-59
2023/08/02 12:41:00;;;;;;;0.80;0.25;;;;;;;;;;5030131;28;20411;-60
2023/08/02 12:43:27;;;;;;;1.00;0.30;;;;;;;;;;5024571;28;20433;-57
2023/08/02 12:45:55;;;;;;;1.10;0.40;;;;;;;;;;5026426;28;20937;-58
2023/08/02 12:48:22;;;;;;;0.90;0.20;;;;;;;;;;5026165;28;20473;-57
2023/08/02 12:50:49;;;;;;;0.35;0.30;;;;;;;;;;5027354;28;20427;-57
2023/08/02 12:53:16;;;;;;;0.65;0.40;;;;;;;;;;5031524;28;20419;-59
2023/08/02 12:55:43;;;;;;;0.45;0.28;;;;;;;;;;5035915;28;20651;-57
2023/08/02 12:58:11;;;;;;;1.30;0.30;;;;;;;;;;5039786;28;20422;-59
2023/08/02 13:00:39;;;;;;;0.70;0.40;;;;;;;;;;5045732;28;20438;-58
2023/08/02 13:03:07;;;;;;;1.10;0.40;;;;;;;;;;5031369;28;20865;-58
2023/08/02 13:05:34;;;;;;;1.80;0.50;;;;;;;;;;5033348;28;20485;-59
2023/08/02 13:08:01;;;;;;;0.82;0.47;;;;;;;;;;5034737;28;20592;-58
2023/08/02 13:10:28;;;;;;;0.45;0.40;;;;;;;;;;5036117;28;20483;-63
2023/08/02 13:12:56;;;;;;;0.80;0.50;;;;;;;;;;5032845;28;20813;-59
2023/08/02 13:15:24;;;;;;;1.52;0.70;;;;;;;;;;5029256;28;20417;-60
2023/08/02 13:17:51;;;;;;;1.90;0.80;;;;;;;;;;5020753;28;20430;-58
2023/08/02 13:20:18;;;;;;;1.17;0.80;;;;;;;;;;5021291;28;20419;-58
2023/08/02 13:22:45;;;;;;;1.50;1.20;;;;;;;;;;5020832;28;20473;-59
2023/08/02 13:25:12;;;;;;;2.25;1.10;;;;;;;;;;5019931;28;20416;-58
2023/08/02 13:27:39;;;;;;;1.60;0.90;;;;;;;;;;5022666;28;20804;-58
2023/08/02 13:30:07;;;;;;;2.13;1.02;;;;;;;;;;5028957;28;20420;-57
2023/08/02 13:32:35;;;;;;;1.90;1.05;;;;;;;;;;5028297;28;20770;-57
2023/08/02 13:35:02;;;;;;;1.92;1.00;;;;;;;;;;5020749;28;20423;-58
2023/08/02 13:37:29;;;;;;;1.45;0.80;;;;;;;;;;5027078;28;20906;-59
2023/08/02 13:39:56;;;;;;;2.63;1.00;;;;;;;;;;5026038;28;20419;-59
2023/08/02 13:42:24;;;;;;;1.77;1.00;;;;;;;;;;5018589;28;20888;-59
2023/08/02 13:44:51;;;;;;;5.25;1.52;;;;;;;;;;5025186;28;20422;-59
2023/08/02 13:47:18;;;;;;;2.88;1.25;;;;;;;;;;5024069;28;20420;-58
2023/08/02 13:49:46;;;;;;;3.03;1.13;;;;;;;;;;5022078;28;20411;-59
2023/08/02 13:52:13;;;;;;;2.65;1.27;;;;;;;;;;5023178;28;20432;-59
2023/08/02 13:54:40;;;;;;;1.97;1.10;;;;;;;;;;5023644;28;20414;-59
2023/08/02 13:57:07;;;;;;;2.42;1.10;;;;;;;;;;5024342;28;20426;-62
2023/08/02 13:59:34;;;;;;;4.28;1.38;;;;;;;;;;5023345;28;20411;-61
2023/08/02 14:02:01;;;;;;;2.78;1.15;;;;;;;;;;5025138;28;20445;-62
2023/08/02 14:04:28;;;;;;;3.38;1.33;;;;;;;;;;5024243;28;20415;-62
2023/08/02 14:06:57;;;;;;;4.60;1.38;;;;;;;;;;5027249;28;20811;-62
2023/08/02 14:09:24;;;;;;;2.85;1.52;;;;;;;;;;5031836;28;20435;-58
2023/08/02 14:11:51;;;;;;;5.18;1.50;;;;;;;;;;5028469;28;20485;-57
2023/08/02 14:14:18;;;;;;;2.33;1.40;;;;;;;;;;5029378;28;20421;-54
2023/08/02 14:16:45;;;;;;;5.53;1.80;;;;;;;;;;5021687;28;20514;-55
2023/08/02 14:19:12;;;;;;;3.70;1.80;;;;;;;;;;5028243;28;20414;-57
2023/08/02 14:21:39;;;;;;;4.15;1.60;;;;;;;;;;5025982;28;20881;-58
2023/08/02 14:24:07;;;;;;;2.55;1.42;;;;;;;;;;5027676;28;20489;-57
2023/08/02 14:26:34;;;;;;;4.28;1.60;;;;;;;;;;5032700;28;20476;-56
2023/08/02 14:29:01;;;;;;;4.38;1.60;;;;;;;;;;5024825;28;20416;-57
2023/08/02 14:31:28;;;;;;;3.28;1.35;;;;;;;;;;5029116;28;20431;-56
2023/08/02 14:33:55;;;;;;;4.00;1.43;;;;;;;;;;5024821;28;20416;-57
2023/08/02 14:36:22;;;;;;;4.15;1.60;;;;;;;;;;5040927;28;20486;-58
2023/08/02 14:38:49;;;;;;;3.75;1.85;;;;;;;;;;5025924;28;20414;-57
2023/08/02 14:41:18;;;;;;;2.20;1.50;;;;;;;;;;5032851;28;20463;-57
2023/08/02 14:43:46;;;;;;;4.93;1.92;;;;;;;;;;5025208;28;20465;-57
2023/08/02 14:46:13;;;;;;;3.03;1.42;;;;;;;;;;5024329;28;20426;-57